Pittem, Belgium
Current Conditions -  °F | °C
As of 8:50 AM on Saturday 20 Dec 2014 (Local Time) from EBOS Reporting Station
Few Clouds Few Clouds  
Wind Chill: 38°   Ceiling: Unl
Heat Index: 46°   Visibility: 6mi
Dew Point: 37°   Wind: 26mph
Humidity: 71%   Direction: 260°W
Pressure: 30.21"   Gusts: NA
Location:  50.99°N, 3.26°E
Report Text: EBOS 200750Z 26023KT 9999 FEW035 08/03 Q1023 TEMPO 27025G35KT
Loading
Personal Weather Stations






























Interactive Weather Map New forecast layout! Learn more

10-Day Weather Forecast

Advertisements
Track Severe Weather on mobile